sensor_id;sensor_type;location;lat;lon;timestamp;pressure;altitude;pressure_sealevel;temperature;humidity
37078;BME280;22989;55.998;37.212;2023-12-04T00:00:35;42365.66;;;-145.39;59.67
37078;BME280;22989;55.998;37.212;2023-12-04T00:03:01;42389.09;;;-145.39;59.60
37078;BME280;22989;55.998;37.212;2023-12-04T00:05:27;42412.53;;;-145.39;59.77
37078;BME280;22989;55.998;37.212;2023-12-04T00:07:52;42344.19;;;-145.39;59.70
37078;BME280;22989;55.998;37.212;2023-12-04T00:10:18;42371.50;;;-145.39;59.52
37078;BME280;22989;55.998;37.212;2023-12-04T00:12:44;42363.72;;;-145.39;59.55
37078;BME280;22989;55.998;37.212;2023-12-04T00:15:10;42385.19;;;-145.39;59.69
37078;BME280;22989;55.998;37.212;2023-12-04T00:17:36;42357.84;;;-145.39;59.43
37078;BME280;22989;55.998;37.212;2023-12-04T00:20:08;42385.19;;;-145.39;59.57
37078;BME280;22989;55.998;37.212;2023-12-04T00:22:38;42383.22;;;-145.39;59.46
37078;BME280;22989;55.998;37.212;2023-12-04T00:25:05;42338.31;;;-145.39;59.39
37078;BME280;22989;55.998;37.212;2023-12-04T00:27:31;42353.94;;;-145.39;59.46
37078;BME280;22989;55.998;37.212;2023-12-04T00:29:56;42340.28;;;-145.39;59.52
37078;BME280;22989;55.998;37.212;2023-12-04T00:32:22;42355.91;;;-145.39;59.56
37078;BME280;22989;55.998;37.212;2023-12-04T00:34:48;42375.41;;;-145.39;59.30
37078;BME280;22989;55.998;37.212;2023-12-04T00:37:13;42369.56;;;-145.39;59.36
37078;BME280;22989;55.998;37.212;2023-12-04T00:39:39;42346.13;;;-145.39;59.41
37078;BME280;22989;55.998;37.212;2023-12-04T00:42:05;42334.41;;;-145.39;59.31
37078;BME280;22989;55.998;37.212;2023-12-04T00:44:31;42381.28;;;-145.39;59.17
37078;BME280;22989;55.998;37.212;2023-12-04T00:46:56;42391.03;;;-145.39;59.17
37078;BME280;22989;55.998;37.212;2023-12-04T00:49:23;42359.81;;;-145.39;59.13
37078;BME280;22989;55.998;37.212;2023-12-04T00:51:49;42373.47;;;-145.39;59.18
37078;BME280;22989;55.998;37.212;2023-12-04T00:54:15;42371.50;;;-145.39;59.25
37078;BME280;22989;55.998;37.212;2023-12-04T00:56:41;42373.47;;;-145.39;59.06
37078;BME280;22989;55.998;37.212;2023-12-04T00:59:10;42375.41;;;-145.39;59.06
37078;BME280;22989;55.998;37.212;2023-12-04T01:01:36;42332.47;;;-145.39;59.25
37078;BME280;22989;55.998;37.212;2023-12-04T01:04:02;42355.91;;;-145.39;59.28
37078;BME280;22989;55.998;37.212;2023-12-04T01:06:28;42371.50;;;-145.39;59.09
37078;BME280;22989;55.998;37.212;2023-12-04T01:08:55;42373.47;;;-145.39;59.02
37078;BME280;22989;55.998;37.212;2023-12-04T01:11:21;42385.19;;;-145.39;59.11
37078;BME280;22989;55.998;37.212;2023-12-04T01:13:48;42394.94;;;-145.39;58.88
37078;BME280;22989;55.998;37.212;2023-12-04T01:16:14;42406.66;;;-145.39;58.91
37078;BME280;22989;55.998;37.212;2023-12-04T01:18:41;42391.03;;;-145.39;58.95
37078;BME280;22989;55.998;37.212;2023-12-04T01:21:07;42396.91;;;-145.39;58.99
37078;BME280;22989;55.998;37.212;2023-12-04T01:23:35;42394.94;;;-145.39;59.02
37078;BME280;22989;55.998;37.212;2023-12-04T01:26:02;42434.00;;;-145.39;58.97
37078;BME280;22989;55.998;37.212;2023-12-04T01:28:28;42451.56;;;-145.39;58.81
37078;BME280;22989;55.998;37.212;2023-12-04T01:30:53;42416.44;;;-145.39;58.91
37078;BME280;22989;55.998;37.212;2023-12-04T01:33:19;42451.56;;;-145.39;58.75
37078;BME280;22989;55.998;37.212;2023-12-04T01:35:45;42430.09;;;-145.39;58.72
37078;BME280;22989;55.998;37.212;2023-12-04T01:38:10;42463.28;;;-145.39;59.08
37078;BME280;22989;55.998;37.212;2023-12-04T01:40:36;42394.94;;;-145.39;58.77
37078;BME280;22989;55.998;37.212;2023-12-04T01:43:02;42422.28;;;-145.39;59.15
37078;BME280;22989;55.998;37.212;2023-12-04T01:45:27;42439.84;;;-145.39;59.02
37078;BME280;22989;55.998;37.212;2023-12-04T01:47:53;42494.53;;;-145.39;59.01
37078;BME280;22989;55.998;37.212;2023-12-04T01:50:21;42465.25;;;-145.39;58.82
37078;BME280;22989;55.998;37.212;2023-12-04T01:52:47;42410.56;;;-145.39;58.93
37078;BME280;22989;55.998;37.212;2023-12-04T01:55:14;42422.28;;;-145.39;58.85
37078;BME280;22989;55.998;37.212;2023-12-04T01:57:41;42455.47;;;-145.39;58.98
37078;BME280;22989;55.998;37.212;2023-12-04T02:00:07;42465.25;;;-145.39;58.82
37078;BME280;22989;55.998;37.212;2023-12-04T02:02:41;42455.47;;;-145.39;59.10
37078;BME280;22989;55.998;37.212;2023-12-04T02:05:10;42451.56;;;-145.39;58.77
37078;BME280;22989;55.998;37.212;2023-12-04T02:07:36;42414.47;;;-145.39;58.85
37078;BME280;22989;55.998;37.212;2023-12-04T02:10:03;42445.72;;;-145.39;58.84
37078;BME280;22989;55.998;37.212;2023-12-04T02:12:29;42447.66;;;-145.39;58.86
37078;BME280;22989;55.998;37.212;2023-12-04T02:14:56;42443.75;;;-145.39;58.75
37078;BME280;22989;55.998;37.212;2023-12-04T02:17:23;42408.63;;;-145.39;58.89
37078;BME280;22989;55.998;37.212;2023-12-04T02:19:50;42463.28;;;-145.39;59.06
37078;BME280;22989;55.998;37.212;2023-12-04T02:22:16;42449.63;;;-145.39;58.82
37078;BME280;22989;55.998;37.212;2023-12-04T02:24:45;42465.25;;;-145.39;58.69
37078;BME280;22989;55.998;37.212;2023-12-04T02:27:26;42463.28;;;-145.39;58.84
37078;BME280;22989;55.998;37.212;2023-12-04T02:29:56;42463.28;;;-145.39;58.67
37078;BME280;22989;55.998;37.212;2023-12-04T02:32:24;42467.19;;;-145.39;58.67
37078;BME280;22989;55.998;37.212;2023-12-04T02:34:53;42484.75;;;-145.39;58.59
37078;BME280;22989;55.998;37.212;2023-12-04T02:37:21;42457.44;;;-145.39;58.71
37078;BME280;22989;55.998;37.212;2023-12-04T02:39:46;42500.38;;;-145.39;58.60
37078;BME280;22989;55.998;37.212;2023-12-04T02:42:14;42471.09;;;-145.39;58.74
37078;BME280;22989;55.998;37.212;2023-12-04T02:44:39;42478.91;;;-145.39;58.84
37078;BME280;22989;55.998;37.212;2023-12-04T02:47:05;42461.34;;;-145.39;58.65
37078;BME280;22989;55.998;37.212;2023-12-04T02:49:31;42418.38;;;-145.39;58.79
37078;BME280;22989;55.998;37.212;2023-12-04T02:51:56;42506.25;;;-145.39;58.89
37078;BME280;22989;55.998;37.212;2023-12-04T02:54:22;42476.94;;;-145.39;58.82
37078;BME280;22989;55.998;37.212;2023-12-04T02:56:49;42482.81;;;-145.39;58.71
37078;BME280;22989;55.998;37.212;2023-12-04T02:59:15;42478.91;;;-145.39;58.90
37078;BME280;22989;55.998;37.212;2023-12-04T03:01:41;42488.66;;;-145.39;58.74
37078;BME280;22989;55.998;37.212;2023-12-04T03:04:06;42496.47;;;-145.39;58.86
37078;BME280;22989;55.998;37.212;2023-12-04T03:06:32;42504.28;;;-145.39;58.70
37078;BME280;22989;55.998;37.212;2023-12-04T03:08:58;42500.38;;;-145.39;58.72
37078;BME280;22989;55.998;37.212;2023-12-04T03:11:25;42480.84;;;-145.39;58.98
37078;BME280;22989;55.998;37.212;2023-12-04T03:13:50;42447.66;;;-145.39;58.93
37078;BME280;22989;55.998;37.212;2023-12-04T03:16:17;42451.56;;;-145.39;59.01
37078;BME280;22989;55.998;37.212;2023-12-04T03:18:43;42473.03;;;-145.39;59.03
37078;BME280;22989;55.998;37.212;2023-12-04T03:21:09;42478.91;;;-145.39;58.72
37078;BME280;22989;55.998;37.212;2023-12-04T03:23:35;42457.44;;;-145.39;59.06
37078;BME280;22989;55.998;37.212;2023-12-04T03:26:00;42488.66;;;-145.39;58.80
37078;BME280;22989;55.998;37.212;2023-12-04T03:28:26;42476.94;;;-145.39;59.01
37078;BME280;22989;55.998;37.212;2023-12-04T03:30:52;42478.91;;;-145.39;59.08
37078;BME280;22989;55.998;37.212;2023-12-04T03:33:17;42473.03;;;-145.39;59.11
37078;BME280;22989;55.998;37.212;2023-12-04T03:35:43;42455.47;;;-145.39;58.84
37078;BME280;22989;55.998;37.212;2023-12-04T03:38:09;42476.94;;;-145.39;58.94
37078;BME280;22989;55.998;37.212;2023-12-04T03:40:35;42482.81;;;-145.39;59.02
37078;BME280;22989;55.998;37.212;2023-12-04T03:43:01;42445.72;;;-145.39;58.97
37078;BME280;22989;55.998;37.212;2023-12-04T03:45:26;42443.75;;;-145.39;58.97
37078;BME280;22989;55.998;37.212;2023-12-04T03:47:52;42465.25;;;-145.39;59.05
37078;BME280;22989;55.998;37.212;2023-12-04T03:50:18;42437.91;;;-145.39;58.74
37078;BME280;22989;55.998;37.212;2023-12-04T03:52:43;42437.91;;;-145.39;59.01
37078;BME280;22989;55.998;37.212;2023-12-04T03:55:09;42445.72;;;-145.39;59.10
37078;BME280;22989;55.998;37.212;2023-12-04T03:57:35;42473.03;;;-145.39;59.11
37078;BME280;22989;55.998;37.212;2023-12-04T04:00:01;42435.94;;;-145.39;59.19
37078;BME280;22989;55.998;37.212;2023-12-04T04:02:38;42447.66;;;-145.39;59.06
37078;BME280;22989;55.998;37.212;2023-12-04T04:05:05;42445.72;;;-145.39;59.35
37078;BME280;22989;55.998;37.212;2023-12-04T04:07:30;42447.66;;;-145.39;59.01
37078;BME280;22989;55.998;37.212;2023-12-04T04:09:57;42478.91;;;-145.39;59.02
37078;BME280;22989;55.998;37.212;2023-12-04T04:12:22;42453.53;;;-145.39;58.96
37078;BME280;22989;55.998;37.212;2023-12-04T04:14:48;42451.56;;;-145.39;59.06
37078;BME280;22989;55.998;37.212;2023-12-04T04:17:14;42434.00;;;-145.39;59.27
37078;BME280;22989;55.998;37.212;2023-12-04T04:19:40;42439.84;;;-145.39;58.99
37078;BME280;22989;55.998;37.212;2023-12-04T04:22:06;42445.72;;;-145.39;58.93
37078;BME280;22989;55.998;37.212;2023-12-04T04:24:32;42459.38;;;-145.39;58.97
37078;BME280;22989;55.998;37.212;2023-12-04T04:26:58;42385.19;;;-145.39;59.04
37078;BME280;22989;55.998;37.212;2023-12-04T04:29:23;42475.00;;;-145.39;58.88
37078;BME280;22989;55.998;37.212;2023-12-04T04:31:49;42441.81;;;-145.39;59.08
37078;BME280;22989;55.998;37.212;2023-12-04T04:34:15;42467.19;;;-145.39;58.90
37078;BME280;22989;55.998;37.212;2023-12-04T04:36:42;42428.13;;;-145.39;59.21
37078;BME280;22989;55.998;37.212;2023-12-04T04:39:08;42467.19;;;-145.39;59.09
37078;BME280;22989;55.998;37.212;2023-12-04T04:41:36;42457.44;;;-145.39;59.02
37078;BME280;22989;55.998;37.212;2023-12-04T04:44:02;42461.34;;;-145.39;58.94
37078;BME280;22989;55.998;37.212;2023-12-04T04:46:27;42445.72;;;-145.39;59.11
37078;BME280;22989;55.998;37.212;2023-12-04T04:48:53;42441.81;;;-145.39;58.99
37078;BME280;22989;55.998;37.212;2023-12-04T04:51:19;42455.47;;;-145.39;59.22
37078;BME280;22989;55.998;37.212;2023-12-04T04:53:45;42463.28;;;-145.39;59.11
37078;BME280;22989;55.998;37.212;2023-12-04T04:56:10;42412.53;;;-145.39;59.09
37078;BME280;22989;55.998;37.212;2023-12-04T04:58:36;42447.66;;;-145.39;58.94
37078;BME280;22989;55.998;37.212;2023-12-04T05:01:02;42453.53;;;-145.39;59.08
37078;BME280;22989;55.998;37.212;2023-12-04T05:03:27;42451.56;;;-145.39;59.15
37078;BME280;22989;55.998;37.212;2023-12-04T05:05:53;42453.53;;;-145.39;59.15
37078;BME280;22989;55.998;37.212;2023-12-04T05:08:19;42500.38;;;-145.39;58.96
37078;BME280;22989;55.998;37.212;2023-12-04T05:10:44;42545.28;;;-145.39;59.26
37078;BME280;22989;55.998;37.212;2023-12-04T05:13:10;42533.56;;;-145.39;59.19
37078;BME280;22989;55.998;37.212;2023-12-04T05:15:36;42603.88;;;-145.39;58.92
37078;BME280;22989;55.998;37.212;2023-12-04T05:18:01;42644.88;;;-145.39;59.11
37078;BME280;22989;55.998;37.212;2023-12-04T05:20:27;42709.31;;;-145.39;59.08
37078;BME280;22989;55.998;37.212;2023-12-04T05:22:53;42830.38;;;-145.39;58.88
37078;BME280;22989;55.998;37.212;2023-12-04T05:25:18;43000.28;;;-145.39;59.05
37078;BME280;22989;55.998;37.212;2023-12-04T05:27:44;43092.06;;;-145.39;59.02
37078;BME280;22989;55.998;37.212;2023-12-04T05:30:11;43234.63;;;-145.39;59.18
37078;BME280;22989;55.998;37.212;2023-12-04T05:32:37;43310.78;;;-145.39;59.06
37078;BME280;22989;55.998;37.212;2023-12-04T05:35:03;43377.19;;;-145.39;58.94
37078;BME280;22989;55.998;37.212;2023-12-04T05:37:28;43336.19;;;-145.39;58.99
37078;BME280;22989;55.998;37.212;2023-12-04T05:39:54;43437.72;;;-145.39;58.89
37078;BME280;22989;55.998;37.212;2023-12-04T05:42:20;43482.66;;;-145.39;58.92
37078;BME280;22989;55.998;37.212;2023-12-04T05:44:46;43494.38;;;-145.39;59.08
37078;BME280;22989;55.998;37.212;2023-12-04T05:47:11;43496.31;;;-145.39;59.01
37078;BME280;22989;55.998;37.212;2023-12-04T05:49:37;43523.66;;;-145.39;58.87
37078;BME280;22989;55.998;37.212;2023-12-04T05:52:03;43551.00;;;-145.39;59.06
37078;BME280;22989;55.998;37.212;2023-12-04T05:54:28;43609.59;;;-145.39;58.99
37078;BME280;22989;55.998;37.212;2023-12-04T05:56:54;43672.09;;;-145.39;59.03
37078;BME280;22989;55.998;37.212;2023-12-04T05:59:20;43728.75;;;-145.39;58.99
37078;BME280;22989;55.998;37.212;2023-12-04T06:01:45;43873.28;;;-145.39;58.92
37078;BME280;22989;55.998;37.212;2023-12-04T06:04:11;43857.66;;;-145.39;59.15
37078;BME280;22989;55.998;37.212;2023-12-04T06:06:36;43949.47;;;-145.39;58.89
37078;BME280;22989;55.998;37.212;2023-12-04T06:09:02;43912.34;;;-145.39;58.70
37078;BME280;22989;55.998;37.212;2023-12-04T06:11:28;43883.06;;;-145.39;58.99
37078;BME280;22989;55.998;37.212;2023-12-04T06:13:54;43773.66;;;-145.39;59.01
37078;BME280;22989;55.998;37.212;2023-12-04T06:16:19;43732.66;;;-145.39;59.00
37078;BME280;22989;55.998;37.212;2023-12-04T06:18:45;43691.63;;;-145.39;59.01
37078;BME280;22989;55.998;37.212;2023-12-04T06:21:10;43693.59;;;-145.39;58.84
37078;BME280;22989;55.998;37.212;2023-12-04T06:23:36;43740.47;;;-145.39;58.92
37078;BME280;22989;55.998;37.212;2023-12-04T06:26:02;43775.63;;;-145.39;58.72
37078;BME280;22989;55.998;37.212;2023-12-04T06:28:28;43779.53;;;-145.39;58.70
37078;BME280;22989;55.998;37.212;2023-12-04T06:30:54;43855.72;;;-145.39;58.66
37078;BME280;22989;55.998;37.212;2023-12-04T06:33:20;44068.63;;;-145.39;58.74
37078;BME280;22989;55.998;37.212;2023-12-04T06:35:46;44287.41;;;-145.39;58.72
37078;BME280;22989;55.998;37.212;2023-12-04T06:38:14;44312.78;;;-145.39;58.82
37078;BME280;22989;55.998;37.212;2023-12-04T06:40:41;44400.69;;;-145.39;59.01
37078;BME280;22989;55.998;37.212;2023-12-04T06:43:07;44416.34;;;-145.39;58.77
37078;BME280;22989;55.998;37.212;2023-12-04T06:45:33;44301.06;;;-145.39;58.75
37078;BME280;22989;55.998;37.212;2023-12-04T06:47:59;44121.34;;;-145.39;58.89
37078;BME280;22989;55.998;37.212;2023-12-04T06:50:26;44158.47;;;-145.39;58.96
37078;BME280;22989;55.998;37.212;2023-12-04T06:52:52;44246.38;;;-145.39;58.84
37078;BME280;22989;55.998;37.212;2023-12-04T06:55:18;44226.84;;;-145.39;58.93
37078;BME280;22989;55.998;37.212;2023-12-04T06:57:44;44238.56;;;-145.39;59.07
37078;BME280;22989;55.998;37.212;2023-12-04T07:00:10;44142.84;;;-145.39;58.90
37078;BME280;22989;55.998;37.212;2023-12-04T07:02:38;44234.66;;;-145.39;59.15
37078;BME280;22989;55.998;37.212;2023-12-04T07:05:04;44258.09;;;-145.39;58.88
37078;BME280;22989;55.998;37.212;2023-12-04T07:07:30;44273.72;;;-145.39;58.73
37078;BME280;22989;55.998;37.212;2023-12-04T07:09:55;44303.03;;;-145.39;58.85
37078;BME280;22989;55.998;37.212;2023-12-04T07:12:21;44328.44;;;-145.39;58.77
37078;BME280;22989;55.998;37.212;2023-12-04T07:14:47;44291.31;;;-145.39;58.87
37078;BME280;22989;55.998;37.212;2023-12-04T07:17:12;44263.97;;;-145.39;58.58
37078;BME280;22989;55.998;37.212;2023-12-04T07:19:41;44150.66;;;-145.39;58.55
37078;BME280;22989;55.998;37.212;2023-12-04T07:22:06;44146.75;;;-145.39;58.53
37078;BME280;22989;55.998;37.212;2023-12-04T07:24:32;44086.19;;;-145.39;58.57
37078;BME280;22989;55.998;37.212;2023-12-04T07:26:58;44107.69;;;-145.39;58.30
37078;BME280;22989;55.998;37.212;2023-12-04T07:29:24;44226.84;;;-145.39;58.45
37078;BME280;22989;55.998;37.212;2023-12-04T07:31:50;44271.78;;;-145.39;58.58
37078;BME280;22989;55.998;37.212;2023-12-04T07:34:16;44238.56;;;-145.39;58.43
37078;BME280;22989;55.998;37.212;2023-12-04T07:36:41;44347.97;;;-145.39;58.51
37078;BME280;22989;55.998;37.212;2023-12-04T07:39:10;44400.69;;;-145.39;58.27
37078;BME280;22989;55.998;37.212;2023-12-04T07:41:36;44457.34;;;-145.39;58.26
37078;BME280;22989;55.998;37.212;2023-12-04T07:44:03;44541.34;;;-145.39;58.23
37078;BME280;22989;55.998;37.212;2023-12-04T07:46:29;44388.97;;;-145.39;58.58
37078;BME280;22989;55.998;37.212;2023-12-04T07:48:55;44418.28;;;-145.39;58.29
37078;BME280;22989;55.998;37.212;2023-12-04T07:51:21;44467.13;;;-145.39;58.36
37078;BME280;22989;55.998;37.212;2023-12-04T07:53:46;44553.09;;;-145.39;58.26
37078;BME280;22989;55.998;37.212;2023-12-04T07:56:13;44588.25;;;-145.39;58.35
37078;BME280;22989;55.998;37.212;2023-12-04T07:58:38;44611.69;;;-145.39;58.17
37078;BME280;22989;55.998;37.212;2023-12-04T08:01:04;44566.75;;;-145.39;58.17
37078;BME280;22989;55.998;37.212;2023-12-04T08:03:31;44627.31;;;-145.39;58.05
37078;BME280;22989;55.998;37.212;2023-12-04T08:05:57;44631.22;;;-145.39;58.06
37078;BME280;22989;55.998;37.212;2023-12-04T08:08:23;44631.22;;;-145.39;58.26
37078;BME280;22989;55.998;37.212;2023-12-04T08:10:49;44678.13;;;-145.39;57.97
37078;BME280;22989;55.998;37.212;2023-12-04T08:13:15;44703.50;;;-145.39;57.93
37078;BME280;22989;55.998;37.212;2023-12-04T08:15:42;44732.81;;;-145.39;58.21
37078;BME280;22989;55.998;37.212;2023-12-04T08:18:08;44781.66;;;-145.39;58.21
37078;BME280;22989;55.998;37.212;2023-12-04T08:20:33;44764.06;;;-145.39;58.24
37078;BME280;22989;55.998;37.212;2023-12-04T08:22:59;44730.88;;;-145.39;57.87
37078;BME280;22989;55.998;37.212;2023-12-04T08:25:25;44744.53;;;-145.39;57.89
37078;BME280;22989;55.998;37.212;2023-12-04T08:27:51;44687.88;;;-145.39;57.69
37078;BME280;22989;55.998;37.212;2023-12-04T08:30:16;44705.47;;;-145.39;57.65
37078;BME280;22989;55.998;37.212;2023-12-04T08:32:42;44703.50;;;-145.39;57.60
37078;BME280;22989;55.998;37.212;2023-12-04T08:35:08;44723.03;;;-145.39;57.55
37078;BME280;22989;55.998;37.212;2023-12-04T08:37:34;44769.94;;;-145.39;57.65
37078;BME280;22989;55.998;37.212;2023-12-04T08:39:59;44773.84;;;-145.39;57.36
37078;BME280;22989;55.998;37.212;2023-12-04T08:42:25;44795.34;;;-145.39;57.40
37078;BME280;22989;55.998;37.212;2023-12-04T08:44:51;44746.50;;;-145.39;57.18
37078;BME280;22989;55.998;37.212;2023-12-04T08:47:17;44766.03;;;-145.39;57.42
37078;BME280;22989;55.998;37.212;2023-12-04T08:49:43;44746.50;;;-145.39;57.16
37078;BME280;22989;55.998;37.212;2023-12-04T08:52:09;44791.44;;;-145.39;57.12
37078;BME280;22989;55.998;37.212;2023-12-04T08:54:39;44736.72;;;-145.39;57.21
37078;BME280;22989;55.998;37.212;2023-12-04T08:57:06;44748.44;;;-145.39;56.84
37078;BME280;22989;55.998;37.212;2023-12-04T08:59:31;44725.00;;;-145.39;57.10
37078;BME280;22989;55.998;37.212;2023-12-04T09:01:57;44648.81;;;-145.39;56.77
37078;BME280;22989;55.998;37.212;2023-12-04T09:04:22;44656.63;;;-145.39;56.88
37078;BME280;22989;55.998;37.212;2023-12-04T09:06:48;44691.78;;;-145.39;56.71
37078;BME280;22989;55.998;37.212;2023-12-04T09:09:14;44717.19;;;-145.39;56.70
37078;BME280;22989;55.998;37.212;2023-12-04T09:11:42;44715.22;;;-145.39;56.64
37078;BME280;22989;55.998;37.212;2023-12-04T09:14:09;44752.34;;;-145.39;56.88
37078;BME280;22989;55.998;37.212;2023-12-04T09:16:34;44719.13;;;-145.39;56.65
37078;BME280;22989;55.998;37.212;2023-12-04T09:19:00;44678.13;;;-145.39;56.50
37078;BME280;22989;55.998;37.212;2023-12-04T09:21:26;44725.00;;;-145.39;56.36
37078;BME280;22989;55.998;37.212;2023-12-04T09:23:52;44752.34;;;-145.39;56.33
37078;BME280;22989;55.998;37.212;2023-12-04T09:26:18;44697.66;;;-145.39;56.20
37078;BME280;22989;55.998;37.212;2023-12-04T09:28:44;44717.19;;;-145.39;56.28
37078;BME280;22989;55.998;37.212;2023-12-04T09:31:09;44666.38;;;-145.39;56.06
37078;BME280;22989;55.998;37.212;2023-12-04T09:33:35;44613.66;;;-145.39;56.25
37078;BME280;22989;55.998;37.212;2023-12-04T09:36:02;44654.66;;;-145.39;56.17
37078;BME280;22989;55.998;37.212;2023-12-04T09:38:28;44611.69;;;-145.39;55.93
37078;BME280;22989;55.998;37.212;2023-12-04T09:41:00;44695.69;;;-145.39;56.00
37078;BME280;22989;55.998;37.212;2023-12-04T09:43:31;44642.94;;;-145.39;56.01
37078;BME280;22989;55.998;37.212;2023-12-04T09:45:58;44711.31;;;-145.39;55.91
37078;BME280;22989;55.998;37.212;2023-12-04T09:48:25;44693.75;;;-145.39;55.94
37078;BME280;22989;55.998;37.212;2023-12-04T09:50:52;44758.22;;;-145.39;55.85
37078;BME280;22989;55.998;37.212;2023-12-04T09:53:19;44709.38;;;-145.39;55.89
37078;BME280;22989;55.998;37.212;2023-12-04T09:55:51;44685.94;;;-145.39;55.61
37078;BME280;22989;55.998;37.212;2023-12-04T09:58:19;44703.50;;;-145.39;55.73
37078;BME280;22989;55.998;37.212;2023-12-04T10:00:46;44646.84;;;-145.39;55.88
37078;BME280;22989;55.998;37.212;2023-12-04T10:03:13;44691.78;;;-145.39;55.88
37078;BME280;22989;55.998;37.212;2023-12-04T10:05:44;44584.34;;;-145.39;55.80
37078;BME280;22989;55.998;37.212;2023-12-04T10:08:13;44652.72;;;-145.39;55.56
37078;BME280;22989;55.998;37.212;2023-12-04T10:10:39;44672.25;;;-145.39;55.60
37078;BME280;22989;55.998;37.212;2023-12-04T10:13:04;44631.22;;;-145.39;55.61
37078;BME280;22989;55.998;37.212;2023-12-04T10:15:30;44674.22;;;-145.39;55.56
37078;BME280;22989;55.998;37.212;2023-12-04T10:17:56;44629.28;;;-145.39;55.56
37078;BME280;22989;55.998;37.212;2023-12-04T10:20:21;44642.94;;;-145.39;55.27
37078;BME280;22989;55.998;37.212;2023-12-04T10:22:57;44549.19;;;-145.39;55.52
37078;BME280;22989;55.998;37.212;2023-12-04T10:25:24;44574.56;;;-145.39;55.33
37078;BME280;22989;55.998;37.212;2023-12-04T10:27:51;44543.31;;;-145.39;55.22
37078;BME280;22989;55.998;37.212;2023-12-04T10:30:28;44541.34;;;-145.39;55.20
37078;BME280;22989;55.998;37.212;2023-12-04T10:33:01;44578.47;;;-145.39;55.27
37078;BME280;22989;55.998;37.212;2023-12-04T10:35:31;44502.28;;;-145.39;55.23
37078;BME280;22989;55.998;37.212;2023-12-04T10:37:57;44596.06;;;-145.39;55.20
37078;BME280;22989;55.998;37.212;2023-12-04T10:40:28;44611.69;;;-145.39;54.94
37078;BME280;22989;55.998;37.212;2023-12-04T10:45:39;44584.34;;;-145.39;54.95
37078;BME280;22989;55.998;37.212;2023-12-04T10:48:06;44586.28;;;-145.39;54.95
37078;BME280;22989;55.998;37.212;2023-12-04T10:50:39;44482.75;;;-145.39;55.00
37078;BME280;22989;55.998;37.212;2023-12-04T10:53:09;44537.44;;;-145.39;55.00
37078;BME280;22989;55.998;37.212;2023-12-04T10:55:35;44531.59;;;-145.39;54.99
37078;BME280;22989;55.998;37.212;2023-12-04T10:58:05;44535.50;;;-145.39;54.73
37078;BME280;22989;55.998;37.212;2023-12-04T11:00:35;44476.88;;;-145.39;55.00
37078;BME280;22989;55.998;37.212;2023-12-04T11:03:13;44492.53;;;-145.39;55.16
37078;BME280;22989;55.998;37.212;2023-12-04T11:05:40;44445.63;;;-145.39;54.72
37078;BME280;22989;55.998;37.212;2023-12-04T11:08:09;44512.06;;;-145.39;54.95
37078;BME280;22989;55.998;37.212;2023-12-04T11:10:45;44424.16;;;-145.39;54.78
37078;BME280;22989;55.998;37.212;2023-12-04T11:13:35;44396.78;;;-145.39;54.71
37078;BME280;22989;55.998;37.212;2023-12-04T11:16:10;44408.50;;;-145.39;54.86
37078;BME280;22989;55.998;37.212;2023-12-04T11:18:43;44465.16;;;-145.39;54.75
37078;BME280;22989;55.998;37.212;2023-12-04T11:21:10;44392.88;;;-145.39;54.71
37078;BME280;22989;55.998;37.212;2023-12-04T11:23:37;44334.28;;;-145.39;54.95
37078;BME280;22989;55.998;37.212;2023-12-04T11:26:03;44346.00;;;-145.39;54.67
37078;BME280;22989;55.998;37.212;2023-12-04T11:28:31;44357.72;;;-145.39;54.83
37078;BME280;22989;55.998;37.212;2023-12-04T11:30:58;44291.31;;;-145.39;54.68
37078;BME280;22989;55.998;37.212;2023-12-04T11:33:26;44299.13;;;-145.39;54.62
37078;BME280;22989;55.998;37.212;2023-12-04T11:35:52;44142.84;;;-145.39;54.87
37078;BME280;22989;55.998;37.212;2023-12-04T11:38:18;44135.03;;;-145.39;54.54
37078;BME280;22989;55.998;37.212;2023-12-04T11:40:46;44058.84;;;-145.39;54.86
37078;BME280;22989;55.998;37.212;2023-12-04T11:43:24;44045.19;;;-145.39;54.68
37078;BME280;22989;55.998;37.212;2023-12-04T11:45:50;44078.38;;;-145.39;54.73
37078;BME280;22989;55.998;37.212;2023-12-04T11:48:16;44103.78;;;-145.39;54.78
37078;BME280;22989;55.998;37.212;2023-12-04T11:50:45;44148.72;;;-145.39;54.58
37078;BME280;22989;55.998;37.212;2023-12-04T11:53:11;44195.59;;;-145.39;54.71
37078;BME280;22989;55.998;37.212;2023-12-04T11:55:40;44220.97;;;-145.39;54.73
37078;BME280;22989;55.998;37.212;2023-12-04T11:58:10;44199.50;;;-145.39;54.78
37078;BME280;22989;55.998;37.212;2023-12-04T12:00:36;44183.88;;;-145.39;54.59
37078;BME280;22989;55.998;37.212;2023-12-04T12:03:06;44203.41;;;-145.39;54.52
37078;BME280;22989;55.998;37.212;2023-12-04T12:05:34;44094.00;;;-145.39;54.61
37078;BME280;22989;55.998;37.212;2023-12-04T12:08:02;44092.06;;;-145.39;54.68
37078;BME280;22989;55.998;37.212;2023-12-04T12:10:28;44051.03;;;-145.39;54.58
37078;BME280;22989;55.998;37.212;2023-12-04T12:12:55;44068.63;;;-145.39;54.91
37078;BME280;22989;55.998;37.212;2023-12-04T12:15:20;44019.78;;;-145.39;54.92
37078;BME280;22989;55.998;37.212;2023-12-04T12:17:46;43990.47;;;-145.39;54.76
37078;BME280;22989;55.998;37.212;2023-12-04T12:20:13;44062.75;;;-145.39;54.68
37078;BME280;22989;55.998;37.212;2023-12-04T12:22:40;43951.41;;;-145.39;54.97
37078;BME280;22989;55.998;37.212;2023-12-04T12:25:10;44013.94;;;-145.39;54.82
37078;BME280;22989;55.998;37.212;2023-12-04T12:27:36;44017.84;;;-145.39;55.04
37078;BME280;22989;55.998;37.212;2023-12-04T12:30:03;44002.22;;;-145.39;54.85